<?xml version="1.0" encoding="UTF-8"?>
<gpx xmlns="http://www.topografix.com/GPX/1/1" version="1.1" xmlns:xsi="http://www.w3.org/2001/XMLSchema-instance" xsi:schemaLocation="http://www.topografix.com/GPX/1/1 http://www.topografix.com/GPX/1/1/gpx.xsd" creator="MotionXGPSFull 24.4 Build 5112 R64">
<trk>
<name><![CDATA[Family hike]]></name>
<desc><![CDATA[Jan 14, 2018 10:03 am]]></desc>
<trkseg>
<trkpt lat="22.2662045" lon="114.2518167">
<ele>2.243</ele>
<time>2018-01-14T02:03:52.009Z</time>
</trkpt>
<trkpt lat="22.2661895" lon="114.2518211">
<ele>2.071</ele>
<time>2018-01-14T02:03:52.828Z</time>
</trkpt>
<trkpt lat="22.2661108" lon="114.2518769">
<ele>1.891</ele>
<time>2018-01-14T02:03:58.159Z</time>
</trkpt>
<trkpt lat="22.2660489" lon="114.2519665">
<ele>1.704</ele>
<time>2018-01-14T02:04:05.890Z</time>
</trkpt>
<trkpt lat="22.2659896" lon="114.2520482">
<ele>1.374</ele>
<time>2018-01-14T02:04:14.616Z</time>
</trkpt>
<trkpt lat="22.2658983" lon="114.2520259">
<ele>0.971</ele>
<time>2018-01-14T02:04:25.527Z</time>
</trkpt>
<trkpt lat="22.2658002" lon="114.2520231">
<ele>0.710</ele>
<time>2018-01-14T02:04:37.608Z</time>
</trkpt>
<trkpt lat="22.2657028" lon="114.2520392">
<ele>0.724</ele>
<time>2018-01-14T02:04:48.997Z</time>
</trkpt>
<trkpt lat="22.2657028" lon="114.2520392">
<ele>0.963</ele>
<time>2018-01-14T02:05:03.996Z</time>
</trkpt>
<trkpt lat="22.2657028" lon="114.2520392">
<ele>1.167</ele>
<time>2018-01-14T02:05:04.096Z</time>
</trkpt>
<trkpt lat="22.2655888" lon="114.2520573">
<ele>1.164</ele>
<time>2018-01-14T02:05:21.075Z</time>
</trkpt>
<trkpt lat="22.2655014" lon="114.2520914">
<ele>1.526</ele>
<time>2018-01-14T02:05:29.995Z</time>
</trkpt>
<trkpt lat="22.2655014" lon="114.2520914">
<ele>2.672</ele>
<time>2018-01-14T02:05:32.995Z</time>
</trkpt>
<trkpt lat="22.2655014" lon="114.2520914">
<ele>3.667</ele>
<time>2018-01-14T02:05:41.659Z</time>
</trkpt>
<trkpt lat="22.2654182" lon="114.2522152">
<ele>3.125</ele>
<time>2018-01-14T02:06:02.747Z</time>
</trkpt>
<trkpt lat="22.2653738" lon="114.2523138">
<ele>3.130</ele>
<time>2018-01-14T02:06:09.172Z</time>
</trkpt>
<trkpt lat="22.2652820" lon="114.2523073">
<ele>4.223</ele>
<time>2018-01-14T02:06:14.994Z</time>
</trkpt>
<trkpt lat="22.2652820" lon="114.2523073">
<ele>5.816</ele>
<time>2018-01-14T02:06:16.994Z</time>
</trkpt>
<trkpt lat="22.2652820" lon="114.2523073">
<ele>6.738</ele>
<time>2018-01-14T02:06:17.635Z</time>
</trkpt>
<trkpt lat="22.2651426" lon="114.2522028">
<ele>6.671</ele>
<time>2018-01-14T02:06:44.771Z</time>
</trkpt>
<trkpt lat="22.2650509" lon="114.2521985">
<ele>6.755</ele>
<time>2018-01-14T02:06:53.676Z</time>
</trkpt>
<trkpt lat="22.2649545" lon="114.2522374">
<ele>7.878</ele>
<time>2018-01-14T02:07:04.284Z</time>
</trkpt>
<trkpt lat="22.2649361" lon="114.2523404">
<ele>9.254</ele>
<time>2018-01-14T02:07:16.561Z</time>
</trkpt>
<trkpt lat="22.2648496" lon="114.2523691">
<ele>9.945</ele>
<time>2018-01-14T02:07:33.991Z</time>
</trkpt>
<trkpt lat="22.2648496" lon="114.2523691">
<ele>10.041</ele>
<time>2018-01-14T02:07:43.991Z</time>
</trkpt>
<trkpt lat="22.2648496" lon="114.2523691">
<ele>9.929</ele>
<time>2018-01-14T02:07:44.091Z</time>
</trkpt>
<trkpt lat="22.2648636" lon="114.2526269">
<ele>9.885</ele>
<time>2018-01-14T02:08:32.990Z</time>
</trkpt>
<trkpt lat="22.2648636" lon="114.2526269">
<ele>9.936</ele>
<time>2018-01-14T02:08:43.989Z</time>
</trkpt>
<trkpt lat="22.2648636" lon="114.2526269">
<ele>9.985</ele>
<time>2018-01-14T02:08:44.089Z</time>
</trkpt>
<trkpt lat="22.2648232" lon="114.2527742">
<ele>9.982</ele>
<time>2018-01-14T02:09:15.939Z</time>
</trkpt>
<trkpt lat="22.2647443" lon="114.2528387">
<ele>10.765</ele>
<time>2018-01-14T02:09:22.988Z</time>
</trkpt>
<trkpt lat="22.2647443" lon="114.2528387">
<ele>12.867</ele>
<time>2018-01-14T02:09:33.988Z</time>
</trkpt>
<trkpt lat="22.2647443" lon="114.2528387">
<ele>14.629</ele>
<time>2018-01-14T02:09:34.752Z</time>
</trkpt>
<trkpt lat="22.2646656" lon="114.2529784">
<ele>14.595</ele>
<time>2018-01-14T02:09:53.987Z</time>
</trkpt>
<trkpt lat="22.2646656" lon="114.2529784">
<ele>13.895</ele>
<time>2018-01-14T02:10:04.987Z</time>
</trkpt>
<trkpt lat="22.2646656" lon="114.2529784">
<ele>13.821</ele>
<time>2018-01-14T02:10:11.613Z</time>
</trkpt>
<trkpt lat="22.2644927" lon="114.2530187">
<ele>14.163</ele>
<time>2018-01-14T02:10:28.986Z</time>
</trkpt>
<trkpt lat="22.2644927" lon="114.2530187">
<ele>14.065</ele>
<time>2018-01-14T02:10:42.986Z</time>
</trkpt>
<trkpt lat="22.2644927" lon="114.2530187">
<ele>14.044</ele>
<time>2018-01-14T02:10:43.086Z</time>
</trkpt>
<trkpt lat="22.2644085" lon="114.2529767">
<ele>14.093</ele>
<time>2018-01-14T02:10:56.995Z</time>
</trkpt>
<trkpt lat="22.2644085" lon="114.2529767">
<ele>14.126</ele>
<time>2018-01-14T02:11:09.998Z</time>
</trkpt>
<trkpt lat="22.2644085" lon="114.2529767">
<ele>14.123</ele>
<time>2018-01-14T02:11:10.098Z</time>
</trkpt>
<trkpt lat="22.2642693" lon="114.2531253">
<ele>14.111</ele>
<time>2018-01-14T02:11:49.106Z</time>
</trkpt>
<trkpt lat="22.2642377" lon="114.2532210">
<ele>15.687</ele>
<time>2018-01-14T02:11:56.169Z</time>
</trkpt>
<trkpt lat="22.2642247" lon="114.2533211">
<ele>19.985</ele>
<time>2018-01-14T02:12:02.998Z</time>
</trkpt>
<trkpt lat="22.2642247" lon="114.2533211">
<ele>24.682</ele>
<time>2018-01-14T02:12:11.998Z</time>
</trkpt>
<trkpt lat="22.2642247" lon="114.2533211">
<ele>26.866</ele>
<time>2018-01-14T02:13:01.432Z</time>
</trkpt>
<trkpt lat="22.2641852" lon="114.2536004">
<ele>26.611</ele>
<time>2018-01-14T02:13:32.606Z</time>
</trkpt>
<trkpt lat="22.2641348" lon="114.2536843">
<ele>27.140</ele>
<time>2018-01-14T02:14:00.279Z</time>
</trkpt>
<trkpt lat="22.2641217" lon="114.2537857">
<ele>30.978</ele>
<time>2018-01-14T02:14:19.541Z</time>
</trkpt>
<trkpt lat="22.2640663" lon="114.2538639">
<ele>35.989</ele>
<time>2018-01-14T02:14:34.521Z</time>
</trkpt>
<trkpt lat="22.2640488" lon="114.2539662">
<ele>39.157</ele>
<time>2018-01-14T02:14:48.373Z</time>
</trkpt>
<trkpt lat="22.2640053" lon="114.2540589">
<ele>40.411</ele>
<time>2018-01-14T02:14:59.437Z</time>
</trkpt>
<trkpt lat="22.2639417" lon="114.2541281">
<ele>40.792</ele>
<time>2018-01-14T02:15:09.994Z</time>
</trkpt>
<trkpt lat="22.2639417" lon="114.2541281">
<ele>40.990</ele>
<time>2018-01-14T02:15:18.993Z</time>
</trkpt>
<trkpt lat="22.2639417" lon="114.2541281">
<ele>41.105</ele>
<time>2018-01-14T02:15:25.539Z</time>
</trkpt>
<trkpt lat="22.2638702" lon="114.2542222">
<ele>41.000</ele>
<time>2018-01-14T02:15:43.447Z</time>
</trkpt>
<trkpt lat="22.2638140" lon="114.2543093">
<ele>41.138</ele>
<time>2018-01-14T02:15:50.645Z</time>
</trkpt>
<trkpt lat="22.2637558" lon="114.2543903">
<ele>41.622</ele>
<time>2018-01-14T02:15:56.992Z</time>
</trkpt>
<trkpt lat="22.2637558" lon="114.2543903">
<ele>42.142</ele>
<time>2018-01-14T02:16:03.992Z</time>
</trkpt>
<trkpt lat="22.2637558" lon="114.2543903">
<ele>42.360</ele>
<time>2018-01-14T02:18:50.541Z</time>
</trkpt>
<trkpt lat="22.2636429" lon="114.2545420">
<ele>42.312</ele>
<time>2018-01-14T02:19:12.998Z</time>
</trkpt>
<trkpt lat="22.2636429" lon="114.2545420">
<ele>42.205</ele>
<time>2018-01-14T02:19:21.998Z</time>
</trkpt>
<trkpt lat="22.2636429" lon="114.2545420">
<ele>42.182</ele>
<time>2018-01-14T02:19:22.989Z</time>
</trkpt>
<trkpt lat="22.2635350" lon="114.2546144">
<ele>42.219</ele>
<time>2018-01-14T02:19:43.972Z</time>
</trkpt>
<trkpt lat="22.2634688" lon="114.2546824">
<ele>43.627</ele>
<time>2018-01-14T02:19:54.997Z</time>
</trkpt>
<trkpt lat="22.2634688" lon="114.2546824">
<ele>47.223</ele>
<time>2018-01-14T02:19:56.997Z</time>
</trkpt>
<trkpt lat="22.2634688" lon="114.2546824">
<ele>50.205</ele>
<time>2018-01-14T02:19:57.097Z</time>
</trkpt>
<trkpt lat="22.2634050" lon="114.2547630">
<ele>48.533</ele>
<time>2018-01-14T02:20:10.113Z</time>
</trkpt>
<trkpt lat="22.2633350" lon="114.2548445">
<ele>47.957</ele>
<time>2018-01-14T02:20:16.996Z</time>
</trkpt>
<trkpt lat="22.2633350" lon="114.2548445">
<ele>49.103</ele>
<time>2018-01-14T02:20:24.996Z</time>
</trkpt>
<trkpt lat="22.2633350" lon="114.2548445">
<ele>50.389</ele>
<time>2018-01-14T02:20:25.096Z</time>
</trkpt>
<trkpt lat="22.2633084" lon="114.2549838">
<ele>50.387</ele>
<time>2018-01-14T02:21:08.527Z</time>
</trkpt>
<trkpt lat="22.2632611" lon="114.2550766">
<ele>50.157</ele>
<time>2018-01-14T02:21:14.995Z</time>
</trkpt>
<trkpt lat="22.2632611" lon="114.2550766">
<ele>50.884</ele>
<time>2018-01-14T02:21:24.995Z</time>
</trkpt>
<trkpt lat="22.2632611" lon="114.2550766">
<ele>51.742</ele>
<time>2018-01-14T02:21:25.095Z</time>
</trkpt>
<trkpt lat="22.2631703" lon="114.2551633">
<ele>51.737</ele>
<time>2018-01-14T02:21:40.630Z</time>
</trkpt>
<trkpt lat="22.2630821" lon="114.2552041">
<ele>51.541</ele>
<time>2018-01-14T02:21:48.994Z</time>
</trkpt>
<trkpt lat="22.2630821" lon="114.2552041">
<ele>51.934</ele>
<time>2018-01-14T02:21:54.994Z</time>
</trkpt>
<trkpt lat="22.2630821" lon="114.2552041">
<ele>52.431</ele>
<time>2018-01-14T02:21:55.094Z</time>
</trkpt>
<trkpt lat="22.2629871" lon="114.2552719">
<ele>52.388</ele>
<time>2018-01-14T02:22:07.506Z</time>
</trkpt>
<trkpt lat="22.2629219" lon="114.2553587">
<ele>52.003</ele>
<time>2018-01-14T02:22:14.906Z</time>
</trkpt>
<trkpt lat="22.2628665" lon="114.2554418">
<ele>51.569</ele>
<time>2018-01-14T02:22:21.747Z</time>
</trkpt>
<trkpt lat="22.2628211" lon="114.2555321">
<ele>51.066</ele>
<time>2018-01-14T02:22:28.993Z</time>
</trkpt>
<trkpt lat="22.2628211" lon="114.2555321">
<ele>50.578</ele>
<time>2018-01-14T02:22:31.993Z</time>
</trkpt>
<trkpt lat="22.2628211" lon="114.2555321">
<ele>50.324</ele>
<time>2018-01-14T02:22:41.993Z</time>
</trkpt>
<trkpt lat="22.2628211" lon="114.2555321">
<ele>50.326</ele>
<time>2018-01-14T02:22:42.093Z</time>
</trkpt>
<trkpt lat="22.2627596" lon="114.2556048">
<ele>50.381</ele>
<time>2018-01-14T02:23:07.992Z</time>
</trkpt>
<trkpt lat="22.2627596" lon="114.2556048">
<ele>50.323</ele>
<time>2018-01-14T02:23:07.992Z</time>
</trkpt>
<trkpt lat="22.2627596" lon="114.2556048">
<ele>50.299</ele>
<time>2018-01-14T02:23:08.092Z</time>
</trkpt>
<trkpt lat="22.2626896" lon="114.2556737">
<ele>50.287</ele>
<time>2018-01-14T02:23:37.518Z</time>
</trkpt>
<trkpt lat="22.2625951" lon="114.2556889">
<ele>50.709</ele>
<time>2018-01-14T02:23:46.403Z</time>
</trkpt>
<trkpt lat="22.2625023" lon="114.2557406">
<ele>51.836</ele>
<time>2018-01-14T02:23:53.546Z</time>
</trkpt>
<trkpt lat="22.2624465" lon="114.2558168">
<ele>52.937</ele>
<time>2018-01-14T02:24:00.192Z</time>
</trkpt>
<trkpt lat="22.2623777" lon="114.2558971">
<ele>53.162</ele>
<time>2018-01-14T02:24:08.495Z</time>
</trkpt>
<trkpt lat="22.2623440" lon="114.2559878">
<ele>52.283</ele>
<time>2018-01-14T02:24:16.581Z</time>
</trkpt>
<trkpt lat="22.2622909" lon="114.2560732">
<ele>50.591</ele>
<time>2018-01-14T02:24:25.136Z</time>
</trkpt>
<trkpt lat="22.2622301" lon="114.2561596">
<ele>48.843</ele>
<time>2018-01-14T02:24:33.990Z</time>
</trkpt>
<trkpt lat="22.2622301" lon="114.2561596">
<ele>47.645</ele>
<time>2018-01-14T02:24:39.990Z</time>
</trkpt>
<trkpt lat="22.2622301" lon="114.2561596">
<ele>47.153</ele>
<time>2018-01-14T02:25:10.278Z</time>
</trkpt>
<trkpt lat="22.2621197" lon="114.2562993">
<ele>47.204</ele>
<time>2018-01-14T02:25:40.262Z</time>
</trkpt>
<trkpt lat="22.2620580" lon="114.2563745">
<ele>47.424</ele>
<time>2018-01-14T02:25:48.402Z</time>
</trkpt>
<trkpt lat="22.2620110" lon="114.2564622">
<ele>47.085</ele>
<time>2018-01-14T02:25:55.187Z</time>
</trkpt>
<trkpt lat="22.2619718" lon="114.2565579">
<ele>45.717</ele>
<time>2018-01-14T02:26:01.664Z</time>
</trkpt>
<trkpt lat="22.2618858" lon="114.2565954">
<ele>43.807</ele>
<time>2018-01-14T02:26:07.998Z</time>
</trkpt>
<trkpt lat="22.2618858" lon="114.2565954">
<ele>42.207</ele>
<time>2018-01-14T02:26:16.998Z</time>
</trkpt>
<trkpt lat="22.2618858" lon="114.2565954">
<ele>41.430</ele>
<time>2018-01-14T02:26:55.357Z</time>
</trkpt>
<trkpt lat="22.2617190" lon="114.2567465">
<ele>41.494</ele>
<time>2018-01-14T02:27:23.997Z</time>
</trkpt>
<trkpt lat="22.2617190" lon="114.2567465">
<ele>41.768</ele>
<time>2018-01-14T02:27:32.996Z</time>
</trkpt>
<trkpt lat="22.2617190" lon="114.2567465">
<ele>41.773</ele>
<time>2018-01-14T02:27:33.356Z</time>
</trkpt>
<trkpt lat="22.2617605" lon="114.2566581">
<ele>41.605</ele>
<time>2018-01-14T02:29:49.536Z</time>
</trkpt>
<trkpt lat="22.2618508" lon="114.2566491">
<ele>41.033</ele>
<time>2018-01-14T02:33:18.773Z</time>
</trkpt>
<trkpt lat="22.2617752" lon="114.2567140">
<ele>38.930</ele>
<time>2018-01-14T02:38:02.043Z</time>
</trkpt>
<trkpt lat="22.2617708" lon="114.2568119">
<ele>35.786</ele>
<time>2018-01-14T02:41:20.756Z</time>
</trkpt>
<trkpt lat="22.2617976" lon="114.2569068">
<ele>32.939</ele>
<time>2018-01-14T02:45:13.872Z</time>
</trkpt>
<trkpt lat="22.2618421" lon="114.2569931">
<ele>30.168</ele>
<time>2018-01-14T02:48:04.118Z</time>
</trkpt>
<trkpt lat="22.2618222" lon="114.2570897">
<ele>26.284</ele>
<time>2018-01-14T02:50:54.698Z</time>
</trkpt>
<trkpt lat="22.2617971" lon="114.2571870">
<ele>21.600</ele>
<time>2018-01-14T02:53:48.626Z</time>
</trkpt>
<trkpt lat="22.2618198" lon="114.2570746">
<ele>17.891</ele>
<time>2018-01-14T02:57:06.995Z</time>
</trkpt>
<trkpt lat="22.2618198" lon="114.2570746">
<ele>16.339</ele>
<time>2018-01-14T02:57:32.994Z</time>
</trkpt>
<trkpt lat="22.2618198" lon="114.2570746">
<ele>16.543</ele>
<time>2018-01-14T03:00:45.986Z</time>
</trkpt>
<trkpt lat="22.2617334" lon="114.2568524">
<ele>17.309</ele>
<time>2018-01-14T03:02:19.998Z</time>
</trkpt>
<trkpt lat="22.2617334" lon="114.2568524">
<ele>17.745</ele>
<time>2018-01-14T03:02:34.998Z</time>
</trkpt>
<trkpt lat="22.2617334" lon="114.2568524">
<ele>17.767</ele>
<time>2018-01-14T03:02:35.098Z</time>
</trkpt>
<trkpt lat="22.2617510" lon="114.2567560">
<ele>17.687</ele>
<time>2018-01-14T03:03:14.997Z</time>
</trkpt>
<trkpt lat="22.2617510" lon="114.2567560">
<ele>17.706</ele>
<time>2018-01-14T03:03:40.996Z</time>
</trkpt>
<trkpt lat="22.2617510" lon="114.2567560">
<ele>17.716</ele>
<time>2018-01-14T03:07:23.323Z</time>
</trkpt>
<trkpt lat="22.2616608" lon="114.2567318">
<ele>17.694</ele>
<time>2018-01-14T03:07:49.391Z</time>
</trkpt>
<trkpt lat="22.2617081" lon="114.2566393">
<ele>22.405</ele>
<time>2018-01-14T03:08:10.729Z</time>
</trkpt>
<trkpt lat="22.2616013" lon="114.2566602">
<ele>35.521</ele>
<time>2018-01-14T03:08:32.428Z</time>
</trkpt>
<trkpt lat="22.2616722" lon="114.2565916">
<ele>50.301</ele>
<time>2018-01-14T03:08:50.511Z</time>
</trkpt>
<trkpt lat="22.2616986" lon="114.2564948">
<ele>58.577</ele>
<time>2018-01-14T03:09:21.998Z</time>
</trkpt>
<trkpt lat="22.2616986" lon="114.2564948">
<ele>60.739</ele>
<time>2018-01-14T03:09:29.998Z</time>
</trkpt>
<trkpt lat="22.2616986" lon="114.2564948">
<ele>60.429</ele>
<time>2018-01-14T03:09:30.098Z</time>
</trkpt>
<trkpt lat="22.2617483" lon="114.2562927">
<ele>60.170</ele>
<time>2018-01-14T03:10:18.997Z</time>
</trkpt>
<trkpt lat="22.2617483" lon="114.2562927">
<ele>60.362</ele>
<time>2018-01-14T03:10:22.997Z</time>
</trkpt>
<trkpt lat="22.2617483" lon="114.2562927">
<ele>60.528</ele>
<time>2018-01-14T03:11:53.044Z</time>
</trkpt>
<trkpt lat="22.2618247" lon="114.2562385">
<ele>60.383</ele>
<time>2018-01-14T03:12:34.370Z</time>
</trkpt>
<trkpt lat="22.2618328" lon="114.2561310">
<ele>62.404</ele>
<time>2018-01-14T03:12:46.993Z</time>
</trkpt>
<trkpt lat="22.2618328" lon="114.2561310">
<ele>67.853</ele>
<time>2018-01-14T03:12:56.993Z</time>
</trkpt>
<trkpt lat="22.2618328" lon="114.2561310">
<ele>72.410</ele>
<time>2018-01-14T03:12:57.093Z</time>
</trkpt>
<trkpt lat="22.2618683" lon="114.2559530">
<ele>72.306</ele>
<time>2018-01-14T03:13:22.993Z</time>
</trkpt>
<trkpt lat="22.2618683" lon="114.2559530">
<ele>70.476</ele>
<time>2018-01-14T03:13:27.992Z</time>
</trkpt>
<trkpt lat="22.2618683" lon="114.2559530">
<ele>70.270</ele>
<time>2018-01-14T03:13:29.797Z</time>
</trkpt>
<trkpt lat="22.2618683" lon="114.2559530">
<ele>71.138</ele>
<time>2018-01-14T03:13:49.992Z</time>
</trkpt>
<trkpt lat="22.2618683" lon="114.2559530">
<ele>70.854</ele>
<time>2018-01-14T03:13:50.092Z</time>
</trkpt>
<trkpt lat="22.2618843" lon="114.2558495">
<ele>70.754</ele>
<time>2018-01-14T03:14:22.991Z</time>
</trkpt>
<trkpt lat="22.2618843" lon="114.2558495">
<ele>70.867</ele>
<time>2018-01-14T03:14:22.991Z</time>
</trkpt>
<trkpt lat="22.2618843" lon="114.2558495">
<ele>70.963</ele>
<time>2018-01-14T03:14:23.091Z</time>
</trkpt>
<trkpt lat="22.2619161" lon="114.2557490">
<ele>70.933</ele>
<time>2018-01-14T03:14:50.990Z</time>
</trkpt>
<trkpt lat="22.2619161" lon="114.2557490">
<ele>70.855</ele>
<time>2018-01-14T03:14:52.990Z</time>
</trkpt>
<trkpt lat="22.2619161" lon="114.2557490">
<ele>70.822</ele>
<time>2018-01-14T03:15:05.271Z</time>
</trkpt>
<trkpt lat="22.2618784" lon="114.2556278">
<ele>70.828</ele>
<time>2018-01-14T03:16:09.276Z</time>
</trkpt>
<trkpt lat="22.2619246" lon="114.2555418">
<ele>73.304</ele>
<time>2018-01-14T03:16:41.979Z</time>
</trkpt>
<trkpt lat="22.2618848" lon="114.2554473">
<ele>79.828</ele>
<time>2018-01-14T03:17:15.143Z</time>
</trkpt>
<trkpt lat="22.2619033" lon="114.2553505">
<ele>86.950</ele>
<time>2018-01-14T03:17:48.008Z</time>
</trkpt>
<trkpt lat="22.2618998" lon="114.2552489">
<ele>91.049</ele>
<time>2018-01-14T03:18:27.996Z</time>
</trkpt>
<trkpt lat="22.2618998" lon="114.2552489">
<ele>92.373</ele>
<time>2018-01-14T03:20:14.993Z</time>
</trkpt>
<trkpt lat="22.2618998" lon="114.2552489">
<ele>92.328</ele>
<time>2018-01-14T03:20:15.093Z</time>
</trkpt>
<trkpt lat="22.2619006" lon="114.2550202">
<ele>92.155</ele>
<time>2018-01-14T03:20:41.993Z</time>
</trkpt>
<trkpt lat="22.2619006" lon="114.2550202">
<ele>92.165</ele>
<time>2018-01-14T03:20:50.993Z</time>
</trkpt>
<trkpt lat="22.2619006" lon="114.2550202">
<ele>92.193</ele>
<time>2018-01-14T03:20:51.093Z</time>
</trkpt>
<trkpt lat="22.2618520" lon="114.2549133">
<ele>92.159</ele>
<time>2018-01-14T03:21:33.992Z</time>
</trkpt>
<trkpt lat="22.2618520" lon="114.2549133">
<ele>92.096</ele>
<time>2018-01-14T03:21:34.992Z</time>
</trkpt>
<trkpt lat="22.2618520" lon="114.2549133">
<ele>92.057</ele>
<time>2018-01-14T03:21:35.335Z</time>
</trkpt>
<trkpt lat="22.2617727" lon="114.2548539">
<ele>92.014</ele>
<time>2018-01-14T03:22:09.789Z</time>
</trkpt>
<trkpt lat="22.2617762" lon="114.2547539">
<ele>94.543</ele>
<time>2018-01-14T03:22:22.990Z</time>
</trkpt>
<trkpt lat="22.2617762" lon="114.2547539">
<ele>101.172</ele>
<time>2018-01-14T03:22:27.990Z</time>
</trkpt>
<trkpt lat="22.2617762" lon="114.2547539">
<ele>106.690</ele>
<time>2018-01-14T03:26:28.994Z</time>
</trkpt>
<trkpt lat="22.2617762" lon="114.2547539">
<ele>106.553</ele>
<time>2018-01-14T03:26:37.748Z</time>
</trkpt>
<trkpt lat="22.2619004" lon="114.2546311">
<ele>104.346</ele>
<time>2018-01-14T03:27:30.799Z</time>
</trkpt>
<trkpt lat="22.2618045" lon="114.2546070">
<ele>104.567</ele>
<time>2018-01-14T03:27:39.993Z</time>
</trkpt>
<trkpt lat="22.2618045" lon="114.2546070">
<ele>106.916</ele>
<time>2018-01-14T03:27:50.992Z</time>
</trkpt>
<trkpt lat="22.2618045" lon="114.2546070">
<ele>108.652</ele>
<time>2018-01-14T03:27:51.092Z</time>
</trkpt>
<trkpt lat="22.2616851" lon="114.2545692">
<ele>108.552</ele>
<time>2018-01-14T03:28:06.305Z</time>
</trkpt>
<trkpt lat="22.2615944" lon="114.2545353">
<ele>107.963</ele>
<time>2018-01-14T03:28:15.566Z</time>
</trkpt>
<trkpt lat="22.2615175" lon="114.2544731">
<ele>108.247</ele>
<time>2018-01-14T03:28:24.992Z</time>
</trkpt>
<trkpt lat="22.2615175" lon="114.2544731">
<ele>108.894</ele>
<time>2018-01-14T03:28:32.991Z</time>
</trkpt>
<trkpt lat="22.2615175" lon="114.2544731">
<ele>109.095</ele>
<time>2018-01-14T03:28:33.091Z</time>
</trkpt>
<trkpt lat="22.2614104" lon="114.2544339">
<ele>108.869</ele>
<time>2018-01-14T03:29:09.968Z</time>
</trkpt>
<trkpt lat="22.2613269" lon="114.2543868">
<ele>108.418</ele>
<time>2018-01-14T03:29:21.990Z</time>
</trkpt>
<trkpt lat="22.2613269" lon="114.2543868">
<ele>107.929</ele>
<time>2018-01-14T03:29:36.990Z</time>
</trkpt>
<trkpt lat="22.2613269" lon="114.2543868">
<ele>107.646</ele>
<time>2018-01-14T03:29:37.090Z</time>
</trkpt>
<trkpt lat="22.2611936" lon="114.2543728">
<ele>107.623</ele>
<time>2018-01-14T03:29:45.987Z</time>
</trkpt>
<trkpt lat="22.2611054" lon="114.2543337">
<ele>107.340</ele>
<time>2018-01-14T03:29:49.990Z</time>
</trkpt>
<trkpt lat="22.2611054" lon="114.2543337">
<ele>106.443</ele>
<time>2018-01-14T03:30:01.997Z</time>
</trkpt>
<trkpt lat="22.2611054" lon="114.2543337">
<ele>105.644</ele>
<time>2018-01-14T03:30:02.097Z</time>
</trkpt>
<trkpt lat="22.2610542" lon="114.2542436">
<ele>105.609</ele>
<time>2018-01-14T03:30:11.205Z</time>
</trkpt>
<trkpt lat="22.2609640" lon="114.2542201">
<ele>104.932</ele>
<time>2018-01-14T03:30:14.998Z</time>
</trkpt>
<trkpt lat="22.2609640" lon="114.2542201">
<ele>102.495</ele>
<time>2018-01-14T03:30:16.998Z</time>
</trkpt>
<trkpt lat="22.2609640" lon="114.2542201">
<ele>100.310</ele>
<time>2018-01-14T03:30:27.664Z</time>
</trkpt>
<trkpt lat="22.2610065" lon="114.2541302">
<ele>101.395</ele>
<time>2018-01-14T03:30:52.998Z</time>
</trkpt>
<trkpt lat="22.2610065" lon="114.2541302">
<ele>102.082</ele>
<time>2018-01-14T03:30:57.998Z</time>
</trkpt>
<trkpt lat="22.2610065" lon="114.2541302">
<ele>102.002</ele>
<time>2018-01-14T03:30:58.098Z</time>
</trkpt>
<trkpt lat="22.2610809" lon="114.2540639">
<ele>101.593</ele>
<time>2018-01-14T03:31:17.792Z</time>
</trkpt>
<trkpt lat="22.2611619" lon="114.2540152">
<ele>99.550</ele>
<time>2018-01-14T03:31:33.997Z</time>
</trkpt>
<trkpt lat="22.2611619" lon="114.2540152">
<ele>94.871</ele>
<time>2018-01-14T03:31:33.997Z</time>
</trkpt>
<trkpt lat="22.2611619" lon="114.2540152">
<ele>91.034</ele>
<time>2018-01-14T03:31:41.815Z</time>
</trkpt>
<trkpt lat="22.2611324" lon="114.2539208">
<ele>93.048</ele>
<time>2018-01-14T03:31:52.997Z</time>
</trkpt>
<trkpt lat="22.2611324" lon="114.2539208">
<ele>94.273</ele>
<time>2018-01-14T03:31:52.997Z</time>
</trkpt>
<trkpt lat="22.2611324" lon="114.2539208">
<ele>94.164</ele>
<time>2018-01-14T03:31:53.097Z</time>
</trkpt>
<trkpt lat="22.2612396" lon="114.2539465">
<ele>93.609</ele>
<time>2018-01-14T03:32:31.622Z</time>
</trkpt>
<trkpt lat="22.2613289" lon="114.2539111">
<ele>91.813</ele>
<time>2018-01-14T03:32:43.654Z</time>
</trkpt>
<trkpt lat="22.2614199" lon="114.2539089">
<ele>86.496</ele>
<time>2018-01-14T03:32:53.470Z</time>
</trkpt>
<trkpt lat="22.2615099" lon="114.2539121">
<ele>80.598</ele>
<time>2018-01-14T03:33:02.688Z</time>
</trkpt>
<trkpt lat="22.2615908" lon="114.2539667">
<ele>77.190</ele>
<time>2018-01-14T03:33:12.021Z</time>
</trkpt>
<trkpt lat="22.2616851" lon="114.2539769">
<ele>75.665</ele>
<time>2018-01-14T03:33:19.709Z</time>
</trkpt>
<trkpt lat="22.2617704" lon="114.2540235">
<ele>74.723</ele>
<time>2018-01-14T03:33:26.648Z</time>
</trkpt>
<trkpt lat="22.2618657" lon="114.2540401">
<ele>73.749</ele>
<time>2018-01-14T03:33:33.812Z</time>
</trkpt>
<trkpt lat="22.2619517" lon="114.2540732">
<ele>72.759</ele>
<time>2018-01-14T03:33:40.994Z</time>
</trkpt>
<trkpt lat="22.2619517" lon="114.2540732">
<ele>71.989</ele>
<time>2018-01-14T03:33:43.994Z</time>
</trkpt>
<trkpt lat="22.2619517" lon="114.2540732">
<ele>71.631</ele>
<time>2018-01-14T03:33:51.860Z</time>
</trkpt>
<trkpt lat="22.2620537" lon="114.2540631">
<ele>71.643</ele>
<time>2018-01-14T03:34:03.533Z</time>
</trkpt>
<trkpt lat="22.2621423" lon="114.2540437">
<ele>71.419</ele>
<time>2018-01-14T03:34:11.031Z</time>
</trkpt>
<trkpt lat="22.2622323" lon="114.2540339">
<ele>70.422</ele>
<time>2018-01-14T03:34:19.410Z</time>
</trkpt>
<trkpt lat="22.2623311" lon="114.2540387">
<ele>69.011</ele>
<time>2018-01-14T03:34:28.860Z</time>
</trkpt>
<trkpt lat="22.2624277" lon="114.2540257">
<ele>67.674</ele>
<time>2018-01-14T03:34:38.119Z</time>
</trkpt>
<trkpt lat="22.2625162" lon="114.2539844">
<ele>66.316</ele>
<time>2018-01-14T03:34:45.992Z</time>
</trkpt>
<trkpt lat="22.2625162" lon="114.2539844">
<ele>65.050</ele>
<time>2018-01-14T03:34:49.992Z</time>
</trkpt>
<trkpt lat="22.2625162" lon="114.2539844">
<ele>64.378</ele>
<time>2018-01-14T03:34:50.092Z</time>
</trkpt>
<trkpt lat="22.2626302" lon="114.2539926">
<ele>64.409</ele>
<time>2018-01-14T03:35:01.671Z</time>
</trkpt>
<trkpt lat="22.2626147" lon="114.2538964">
<ele>64.556</ele>
<time>2018-01-14T03:35:07.992Z</time>
</trkpt>
<trkpt lat="22.2626147" lon="114.2538964">
<ele>64.353</ele>
<time>2018-01-14T03:35:10.992Z</time>
</trkpt>
<trkpt lat="22.2626147" lon="114.2538964">
<ele>64.063</ele>
<time>2018-01-14T03:35:11.911Z</time>
</trkpt>
<trkpt lat="22.2626147" lon="114.2538964">
<ele>64.152</ele>
<time>2018-01-14T03:35:31.991Z</time>
</trkpt>
<trkpt lat="22.2626147" lon="114.2538964">
<ele>64.227</ele>
<time>2018-01-14T03:35:32.091Z</time>
</trkpt>
<trkpt lat="22.2626258" lon="114.2537196">
<ele>64.180</ele>
<time>2018-01-14T03:35:48.991Z</time>
</trkpt>
<trkpt lat="22.2626258" lon="114.2537196">
<ele>64.081</ele>
<time>2018-01-14T03:36:06.990Z</time>
</trkpt>
<trkpt lat="22.2626258" lon="114.2537196">
<ele>64.024</ele>
<time>2018-01-14T03:36:14.878Z</time>
</trkpt>
<trkpt lat="22.2626507" lon="114.2535923">
<ele>64.009</ele>
<time>2018-01-14T03:36:30.174Z</time>
</trkpt>
<trkpt lat="22.2625793" lon="114.2535311">
<ele>62.390</ele>
<time>2018-01-14T03:36:36.990Z</time>
</trkpt>
<trkpt lat="22.2625793" lon="114.2535311">
<ele>58.188</ele>
<time>2018-01-14T03:36:41.990Z</time>
</trkpt>
<trkpt lat="22.2625793" lon="114.2535311">
<ele>54.676</ele>
<time>2018-01-14T03:36:42.090Z</time>
</trkpt>
<trkpt lat="22.2625283" lon="114.2534477">
<ele>54.712</ele>
<time>2018-01-14T03:37:34.999Z</time>
</trkpt>
<trkpt lat="22.2625283" lon="114.2534477">
<ele>56.059</ele>
<time>2018-01-14T03:37:35.999Z</time>
</trkpt>
<trkpt lat="22.2625283" lon="114.2534477">
<ele>56.172</ele>
<time>2018-01-14T03:37:36.099Z</time>
</trkpt>
<trkpt lat="22.2624284" lon="114.2534789">
<ele>55.445</ele>
<time>2018-01-14T03:37:50.999Z</time>
</trkpt>
<trkpt lat="22.2624284" lon="114.2534789">
<ele>55.615</ele>
<time>2018-01-14T03:37:59.999Z</time>
</trkpt>
<trkpt lat="22.2624284" lon="114.2534789">
<ele>55.624</ele>
<time>2018-01-14T03:38:00.099Z</time>
</trkpt>
<trkpt lat="22.2624284" lon="114.2534789">
<ele>55.484</ele>
<time>2018-01-14T03:38:16.998Z</time>
</trkpt>
<trkpt lat="22.2624284" lon="114.2534789">
<ele>55.496</ele>
<time>2018-01-14T03:38:17.098Z</time>
</trkpt>
<trkpt lat="22.2624284" lon="114.2534789">
<ele>55.454</ele>
<time>2018-01-14T03:38:19.998Z</time>
</trkpt>
<trkpt lat="22.2624284" lon="114.2534789">
<ele>55.426</ele>
<time>2018-01-14T03:38:20.098Z</time>
</trkpt>
<trkpt lat="22.2623385" lon="114.2533652">
<ele>55.411</ele>
<time>2018-01-14T03:38:35.998Z</time>
</trkpt>
<trkpt lat="22.2623385" lon="114.2533652">
<ele>55.394</ele>
<time>2018-01-14T03:38:54.997Z</time>
</trkpt>
<trkpt lat="22.2623385" lon="114.2533652">
<ele>55.368</ele>
<time>2018-01-14T03:39:02.620Z</time>
</trkpt>
<trkpt lat="22.2624258" lon="114.2532615">
<ele>55.342</ele>
<time>2018-01-14T03:39:27.760Z</time>
</trkpt>
<trkpt lat="22.2625021" lon="114.2532001">
<ele>53.353</ele>
<time>2018-01-14T03:39:40.996Z</time>
</trkpt>
<trkpt lat="22.2625021" lon="114.2532001">
<ele>48.204</ele>
<time>2018-01-14T03:39:50.996Z</time>
</trkpt>
<trkpt lat="22.2625021" lon="114.2532001">
<ele>43.905</ele>
<time>2018-01-14T03:40:18.440Z</time>
</trkpt>
<trkpt lat="22.2625940" lon="114.2531907">
<ele>43.960</ele>
<time>2018-01-14T03:40:34.904Z</time>
</trkpt>
<trkpt lat="22.2624963" lon="114.2531915">
<ele>44.517</ele>
<time>2018-01-14T03:40:47.310Z</time>
</trkpt>
<trkpt lat="22.2624047" lon="114.2531670">
<ele>41.788</ele>
<time>2018-01-14T03:40:58.445Z</time>
</trkpt>
<trkpt lat="22.2623155" lon="114.2531525">
<ele>37.920</ele>
<time>2018-01-14T03:41:05.949Z</time>
</trkpt>
<trkpt lat="22.2622195" lon="114.2531763">
<ele>35.946</ele>
<time>2018-01-14T03:41:13.994Z</time>
</trkpt>
<trkpt lat="22.2622195" lon="114.2531763">
<ele>35.776</ele>
<time>2018-01-14T03:41:29.994Z</time>
</trkpt>
<trkpt lat="22.2622195" lon="114.2531763">
<ele>36.174</ele>
<time>2018-01-14T03:42:09.905Z</time>
</trkpt>
<trkpt lat="22.2621573" lon="114.2532506">
<ele>36.023</ele>
<time>2018-01-14T03:42:38.289Z</time>
</trkpt>
<trkpt lat="22.2620595" lon="114.2532490">
<ele>36.063</ele>
<time>2018-01-14T03:42:52.521Z</time>
</trkpt>
<trkpt lat="22.2619685" lon="114.2532389">
<ele>36.639</ele>
<time>2018-01-14T03:43:00.991Z</time>
</trkpt>
<trkpt lat="22.2619685" lon="114.2532389">
<ele>37.292</ele>
<time>2018-01-14T03:43:06.991Z</time>
</trkpt>
<trkpt lat="22.2619685" lon="114.2532389">
<ele>37.547</ele>
<time>2018-01-14T03:43:07.091Z</time>
</trkpt>
<trkpt lat="22.2618652" lon="114.2532220">
<ele>37.340</ele>
<time>2018-01-14T03:43:17.991Z</time>
</trkpt>
<trkpt lat="22.2618652" lon="114.2532220">
<ele>37.258</ele>
<time>2018-01-14T03:43:22.991Z</time>
</trkpt>
<trkpt lat="22.2618652" lon="114.2532220">
<ele>37.249</ele>
<time>2018-01-14T03:43:23.668Z</time>
</trkpt>
<trkpt lat="22.2617825" lon="114.2531408">
<ele>37.261</ele>
<time>2018-01-14T03:43:36.991Z</time>
</trkpt>
<trkpt lat="22.2617825" lon="114.2531408">
<ele>37.251</ele>
<time>2018-01-14T03:43:51.990Z</time>
</trkpt>
<trkpt lat="22.2617825" lon="114.2531408">
<ele>37.228</ele>
<time>2018-01-14T03:44:04.421Z</time>
</trkpt>
<trkpt lat="22.2615832" lon="114.2530140">
<ele>37.212</ele>
<time>2018-01-14T03:44:21.997Z</time>
</trkpt>
<trkpt lat="22.2615832" lon="114.2530140">
<ele>37.200</ele>
<time>2018-01-14T03:44:27.998Z</time>
</trkpt>
<trkpt lat="22.2615832" lon="114.2530140">
<ele>37.184</ele>
<time>2018-01-14T03:44:47.972Z</time>
</trkpt>
<trkpt lat="22.2615832" lon="114.2530140">
<ele>37.157</ele>
<time>2018-01-14T03:44:56.999Z</time>
</trkpt>
<trkpt lat="22.2615832" lon="114.2530140">
<ele>37.150</ele>
<time>2018-01-14T03:44:57.099Z</time>
</trkpt>
<trkpt lat="22.2615832" lon="114.2530140">
<ele>37.123</ele>
<time>2018-01-14T03:44:58.999Z</time>
</trkpt>
<trkpt lat="22.2615832" lon="114.2530140">
<ele>37.111</ele>
<time>2018-01-14T03:44:59.099Z</time>
</trkpt>
<trkpt lat="22.2616764" lon="114.2530335">
<ele>37.088</ele>
<time>2018-01-14T03:45:21.539Z</time>
</trkpt>
<trkpt lat="22.2616722" lon="114.2531363">
<ele>37.042</ele>
<time>2018-01-14T03:45:28.998Z</time>
</trkpt>
<trkpt lat="22.2616722" lon="114.2531363">
<ele>36.939</ele>
<time>2018-01-14T03:45:30.998Z</time>
</trkpt>
<trkpt lat="22.2616722" lon="114.2531363">
<ele>36.849</ele>
<time>2018-01-14T03:45:53.836Z</time>
</trkpt>
<trkpt lat="22.2618618" lon="114.2530647">
<ele>36.836</ele>
<time>2018-01-14T03:46:45.996Z</time>
</trkpt>
<trkpt lat="22.2618618" lon="114.2530647">
<ele>36.850</ele>
<time>2018-01-14T03:46:57.996Z</time>
</trkpt>
<trkpt lat="22.2618618" lon="114.2530647">
<ele>36.838</ele>
<time>2018-01-14T03:46:58.096Z</time>
</trkpt>
<trkpt lat="22.2617679" lon="114.2530472">
<ele>36.801</ele>
<time>2018-01-14T03:47:11.996Z</time>
</trkpt>
<trkpt lat="22.2617679" lon="114.2530472">
<ele>36.794</ele>
<time>2018-01-14T03:47:27.995Z</time>
</trkpt>
<trkpt lat="22.2617679" lon="114.2530472">
<ele>36.779</ele>
<time>2018-01-14T03:47:40.705Z</time>
</trkpt>
<trkpt lat="22.2618452" lon="114.2528541">
<ele>36.761</ele>
<time>2018-01-14T03:48:18.994Z</time>
</trkpt>
<trkpt lat="22.2618452" lon="114.2528541">
<ele>36.747</ele>
<time>2018-01-14T03:48:20.994Z</time>
</trkpt>
<trkpt lat="22.2618452" lon="114.2528541">
<ele>36.730</ele>
<time>2018-01-14T03:48:40.994Z</time>
</trkpt>
<trkpt lat="22.2618452" lon="114.2528541">
<ele>36.714</ele>
<time>2018-01-14T03:48:41.094Z</time>
</trkpt>
<trkpt lat="22.2617730" lon="114.2527840">
<ele>36.702</ele>
<time>2018-01-14T03:48:48.993Z</time>
</trkpt>
<trkpt lat="22.2617730" lon="114.2527840">
<ele>36.689</ele>
<time>2018-01-14T03:48:54.993Z</time>
</trkpt>
<trkpt lat="22.2617730" lon="114.2527840">
<ele>36.672</ele>
<time>2018-01-14T03:49:20.962Z</time>
</trkpt>
<trkpt lat="22.2617730" lon="114.2527840">
<ele>36.646</ele>
<time>2018-01-14T03:49:56.992Z</time>
</trkpt>
<trkpt lat="22.2617730" lon="114.2527840">
<ele>36.639</ele>
<time>2018-01-14T03:50:35.266Z</time>
</trkpt>
<trkpt lat="22.2619772" lon="114.2527263">
<ele>36.627</ele>
<time>2018-01-14T03:50:58.451Z</time>
</trkpt>
<trkpt lat="22.2620714" lon="114.2527491">
<ele>34.937</ele>
<time>2018-01-14T03:51:07.744Z</time>
</trkpt>
<trkpt lat="22.2621632" lon="114.2527300">
<ele>30.563</ele>
<time>2018-01-14T03:51:19.859Z</time>
</trkpt>
<trkpt lat="22.2622655" lon="114.2527297">
<ele>26.093</ele>
<time>2018-01-14T03:51:30.437Z</time>
</trkpt>
<trkpt lat="22.2623734" lon="114.2527490">
<ele>24.023</ele>
<time>2018-01-14T03:51:38.815Z</time>
</trkpt>
<trkpt lat="22.2622785" lon="114.2527640">
<ele>23.770</ele>
<time>2018-01-14T03:51:46.998Z</time>
</trkpt>
<trkpt lat="22.2622785" lon="114.2527640">
<ele>24.131</ele>
<time>2018-01-14T03:51:50.998Z</time>
</trkpt>
<trkpt lat="22.2622785" lon="114.2527640">
<ele>24.369</ele>
<time>2018-01-14T03:51:51.098Z</time>
</trkpt>
<trkpt lat="22.2621387" lon="114.2527472">
<ele>24.340</ele>
<time>2018-01-14T03:52:43.998Z</time>
</trkpt>
<trkpt lat="22.2620900" lon="114.2532340">
<ele>24.262</ele>
<time>2018-01-14T03:54:20.996Z</time>
</trkpt>
<trkpt lat="22.2620900" lon="114.2532340">
<ele>26.365</ele>
<time>2018-01-14T03:54:20.997Z</time>
</trkpt>
<trkpt lat="22.2620900" lon="114.2532340">
<ele>31.758</ele>
<time>2018-01-14T03:54:21.097Z</time>
</trkpt>
<trkpt lat="22.2621686" lon="114.2533228">
<ele>33.461</ele>
<time>2018-01-14T03:54:32.209Z</time>
</trkpt>
<trkpt lat="22.2622599" lon="114.2532905">
<ele>30.969</ele>
<time>2018-01-14T03:54:41.576Z</time>
</trkpt>
<trkpt lat="22.2623093" lon="114.2532000">
<ele>33.166</ele>
<time>2018-01-14T03:54:53.453Z</time>
</trkpt>
<trkpt lat="22.2623952" lon="114.2532304">
<ele>37.217</ele>
<time>2018-01-14T03:55:07.995Z</time>
</trkpt>
<trkpt lat="22.2623952" lon="114.2532304">
<ele>39.223</ele>
<time>2018-01-14T03:55:33.994Z</time>
</trkpt>
<trkpt lat="22.2623952" lon="114.2532304">
<ele>39.337</ele>
<time>2018-01-14T03:55:39.801Z</time>
</trkpt>
<trkpt lat="22.2622821" lon="114.2532561">
<ele>38.983</ele>
<time>2018-01-14T03:55:49.187Z</time>
</trkpt>
<trkpt lat="22.2623290" lon="114.2533416">
<ele>39.874</ele>
<time>2018-01-14T03:55:55.843Z</time>
</trkpt>
<trkpt lat="22.2623761" lon="114.2534252">
<ele>42.762</ele>
<time>2018-01-14T03:56:01.993Z</time>
</trkpt>
<trkpt lat="22.2623761" lon="114.2534252">
<ele>46.063</ele>
<time>2018-01-14T03:56:01.993Z</time>
</trkpt>
<trkpt lat="22.2623761" lon="114.2534252">
<ele>47.691</ele>
<time>2018-01-14T03:56:02.093Z</time>
</trkpt>
<trkpt lat="22.2625476" lon="114.2534931">
<ele>47.510</ele>
<time>2018-01-14T03:57:30.991Z</time>
</trkpt>
<trkpt lat="22.2625476" lon="114.2534931">
<ele>46.859</ele>
<time>2018-01-14T03:57:34.991Z</time>
</trkpt>
<trkpt lat="22.2625476" lon="114.2534931">
<ele>46.791</ele>
<time>2018-01-14T03:58:09.559Z</time>
</trkpt>
<trkpt lat="22.2626044" lon="114.2537015">
<ele>47.126</ele>
<time>2018-01-14T03:58:58.998Z</time>
</trkpt>
<trkpt lat="22.2626044" lon="114.2537015">
<ele>47.344</ele>
<time>2018-01-14T03:59:01.998Z</time>
</trkpt>
<trkpt lat="22.2626044" lon="114.2537015">
<ele>47.344</ele>
<time>2018-01-14T03:59:02.098Z</time>
</trkpt>
<trkpt lat="22.2625934" lon="114.2538641">
<ele>47.285</ele>
<time>2018-01-14T03:59:37.998Z</time>
</trkpt>
<trkpt lat="22.2625934" lon="114.2538641">
<ele>47.270</ele>
<time>2018-01-14T03:59:45.998Z</time>
</trkpt>
<trkpt lat="22.2625934" lon="114.2538641">
<ele>47.268</ele>
<time>2018-01-14T03:59:46.178Z</time>
</trkpt>
<trkpt lat="22.2626211" lon="114.2539703">
<ele>47.255</ele>
<time>2018-01-14T03:59:57.998Z</time>
</trkpt>
<trkpt lat="22.2626211" lon="114.2539703">
<ele>47.236</ele>
<time>2018-01-14T03:59:57.998Z</time>
</trkpt>
<trkpt lat="22.2626211" lon="114.2539703">
<ele>47.220</ele>
<time>2018-01-14T04:00:03.102Z</time>
</trkpt>
<trkpt lat="22.2627172" lon="114.2539531">
<ele>47.207</ele>
<time>2018-01-14T04:00:16.774Z</time>
</trkpt>
<trkpt lat="22.2628012" lon="114.2539972">
<ele>49.701</ele>
<time>2018-01-14T04:00:26.028Z</time>
</trkpt>
<trkpt lat="22.2629024" lon="114.2540224">
<ele>56.214</ele>
<time>2018-01-14T04:00:35.767Z</time>
</trkpt>
<trkpt lat="22.2629938" lon="114.2540083">
<ele>62.711</ele>
<time>2018-01-14T04:00:43.695Z</time>
</trkpt>
<trkpt lat="22.2630357" lon="114.2539184">
<ele>65.181</ele>
<time>2018-01-14T04:00:50.982Z</time>
</trkpt>
<trkpt lat="22.2630880" lon="114.2538329">
<ele>64.512</ele>
<time>2018-01-14T04:00:58.716Z</time>
</trkpt>
<trkpt lat="22.2631790" lon="114.2538101">
<ele>62.767</ele>
<time>2018-01-14T04:01:06.825Z</time>
</trkpt>
<trkpt lat="22.2632749" lon="114.2537875">
<ele>61.087</ele>
<time>2018-01-14T04:01:15.609Z</time>
</trkpt>
<trkpt lat="22.2633571" lon="114.2537365">
<ele>59.726</ele>
<time>2018-01-14T04:01:24.618Z</time>
</trkpt>
<trkpt lat="22.2634331" lon="114.2536708">
<ele>58.655</ele>
<time>2018-01-14T04:01:34.939Z</time>
</trkpt>
<trkpt lat="22.2635180" lon="114.2536271">
<ele>57.614</ele>
<time>2018-01-14T04:01:43.913Z</time>
</trkpt>
<trkpt lat="22.2636052" lon="114.2535802">
<ele>56.454</ele>
<time>2018-01-14T04:01:52.041Z</time>
</trkpt>
<trkpt lat="22.2636686" lon="114.2534931">
<ele>55.300</ele>
<time>2018-01-14T04:02:00.196Z</time>
</trkpt>
<trkpt lat="22.2637481" lon="114.2534478">
<ele>54.213</ele>
<time>2018-01-14T04:02:07.518Z</time>
</trkpt>
<trkpt lat="22.2638428" lon="114.2534218">
<ele>53.120</ele>
<time>2018-01-14T04:02:16.882Z</time>
</trkpt>
<trkpt lat="22.2639330" lon="114.2534314">
<ele>52.015</ele>
<time>2018-01-14T04:02:26.994Z</time>
</trkpt>
<trkpt lat="22.2639330" lon="114.2534314">
<ele>51.091</ele>
<time>2018-01-14T04:02:27.994Z</time>
</trkpt>
<trkpt lat="22.2639330" lon="114.2534314">
<ele>50.646</ele>
<time>2018-01-14T04:02:28.094Z</time>
</trkpt>
<trkpt lat="22.2640006" lon="114.2533656">
<ele>50.872</ele>
<time>2018-01-14T04:02:46.641Z</time>
</trkpt>
<trkpt lat="22.2640838" lon="114.2533232">
<ele>50.515</ele>
<time>2018-01-14T04:02:55.636Z</time>
</trkpt>
<trkpt lat="22.2641757" lon="114.2532879">
<ele>48.993</ele>
<time>2018-01-14T04:03:03.483Z</time>
</trkpt>
<trkpt lat="22.2642593" lon="114.2532385">
<ele>46.759</ele>
<time>2018-01-14T04:03:10.825Z</time>
</trkpt>
<trkpt lat="22.2643285" lon="114.2531735">
<ele>44.841</ele>
<time>2018-01-14T04:03:17.909Z</time>
</trkpt>
<trkpt lat="22.2643950" lon="114.2530912">
<ele>43.460</ele>
<time>2018-01-14T04:03:25.400Z</time>
</trkpt>
<trkpt lat="22.2644844" lon="114.2530598">
<ele>41.233</ele>
<time>2018-01-14T04:03:31.741Z</time>
</trkpt>
<trkpt lat="22.2645742" lon="114.2530374">
<ele>39.557</ele>
<time>2018-01-14T04:03:38.417Z</time>
</trkpt>
<trkpt lat="22.2646642" lon="114.2530091">
<ele>38.419</ele>
<time>2018-01-14T04:03:45.992Z</time>
</trkpt>
<trkpt lat="22.2646642" lon="114.2530091">
<ele>36.915</ele>
<time>2018-01-14T04:03:52.992Z</time>
</trkpt>
<trkpt lat="22.2646642" lon="114.2530091">
<ele>36.091</ele>
<time>2018-01-14T04:04:05.984Z</time>
</trkpt>
<trkpt lat="22.2647216" lon="114.2529307">
<ele>36.142</ele>
<time>2018-01-14T04:04:24.014Z</time>
</trkpt>
<trkpt lat="22.2647741" lon="114.2528491">
<ele>35.982</ele>
<time>2018-01-14T04:04:32.151Z</time>
</trkpt>
<trkpt lat="22.2648120" lon="114.2527504">
<ele>32.970</ele>
<time>2018-01-14T04:04:39.158Z</time>
</trkpt>
<trkpt lat="22.2648341" lon="114.2526552">
<ele>30.605</ele>
<time>2018-01-14T04:04:48.269Z</time>
</trkpt>
<trkpt lat="22.2648254" lon="114.2525555">
<ele>28.777</ele>
<time>2018-01-14T04:04:57.991Z</time>
</trkpt>
<trkpt lat="22.2648254" lon="114.2525555">
<ele>26.206</ele>
<time>2018-01-14T04:05:07.990Z</time>
</trkpt>
<trkpt lat="22.2648254" lon="114.2525555">
<ele>24.719</ele>
<time>2018-01-14T04:05:48.576Z</time>
</trkpt>
<trkpt lat="22.2648679" lon="114.2523939">
<ele>24.813</ele>
<time>2018-01-14T04:06:05.998Z</time>
</trkpt>
<trkpt lat="22.2649475" lon="114.2523482">
<ele>24.428</ele>
<time>2018-01-14T04:06:17.998Z</time>
</trkpt>
</trkseg>
</trk>
<extensions>
<fpdata xmlns="http://www.motionx.com/GPX-Extensions/1/1" sfv="10" origin="MotionXGPSFull 24.4 Build 5112 R64">
<bin enc="base64">
RgIAAAACAAAATE71oa6W1kEBAAAAXIvi0rWW1kEAAPyeGGKwQJEBAAD7zwMAXi3l3MDw
AUA7Lb5Jkm04QAAAAAAMAAAARmFtaWx5IGhpa2UAFgAAAEphbiAxNCwgMjAxOCAxMDow
MyBhbQAAAAAAfovi0rWW1kE8Tx/YtZbWQWbiWQD0AgapOclNQCwAAAAAAAAAPx2uwx2Q
XEDNFlj6JUQ2QF4t5dzA8AFAAAAAAAAAOUAAAAAAAAAQQAAAAAAAAHRAAAAAAAAAAAAA
AAAA4noUrkfhR0AM59VuK3xAQAEAAAAc2xshyVM/vwEAAAABAAAAqMCtFvfTxD8DRgpC
gKjAvwEAAAABAAAABQAAAKKPiiVgkCJAAAAAAAAAAAAAAAAAAAAAAAAAAAAAAAAAAAAA
AAAAAAAAAAAAAAAAAO8PAACZ7H/OtZbWQQAAAAAAAAAAAAAAAAAAAAD/JUS8AgAAAAAA
AAAAAAAAAQAAACcAAAAyNC4yIEJ1aWxkIDUwNjNSNjQsIE1YQUUgOC4xIGIuIDYyNlI2
NAAAAAAAhmAAAAEAAAABUgAAAIe6WlpI11paBKRP9aGultZBpE/1oa6W1kEAAAAAABAX
PwAAAAACXk71oa6W1kGYZy+0rpbWQQAAADoZOlJAAAAAAALe6Ea3rpbWQRLfh7uultZB
AAAAbg97VkAAAAAAAum5BsCultZBu+5txq6W1kEAAABAROJcQAAAAAACjqoHy66W1kEC
vUfcrpbWQQAAAForEWdAAAAAAALMnUforpbWQSqQKuuultZBAAAAiaSCaEAAAAAAAltA
jPKultZBJPOr966W1kEAAIDtfRJrQAAAAAACpAKJ/K6W1kEyBmr/rpbWQQAAgLT/gmxA
AAAAAAI2rYcEr5bWQQh3BgmvltZBAACAnWTCbkAAAAAAAkATSwyvltZBakuyD6+W1kEA
AEBZADtwQAAAAAACueJHF6+W1kHBjS4fr5bWQQAAQBurNHJAAAAAAAJKt4gvr5bWQdgK
7k2vltZBAADA/v/NeUAAAAAAAvDbSVKvltZBwY4sWa+W1kEAAACzrIZ7QAAAAAACZLJK
iK+W1kHoh8aKr5bWQQAAABSiJXxAAAAAAAJSYsiOr5bWQSeja5OvltZBAABASXJOfUAA
AAAAAi9rSJWvltZBDhOHmq+W1kEAAABBHJ5+QAAAAAACBrwIpK+W1kG0IYapr5bWQQAA
gKx1/X9AAAAAAAJbQwesr5bWQc6p6bCvltZBAACgpAebgEAAAAAAAp7whrKvltZBwGBJ
uq+W1kEAAOCoVZOBQAAAAAACiPJHwq+W1kG+Fy3Dr5bWQQAAoE/6r4FAAAAAAALghEnI
r5bWQbmKSNqvltZBAADACtvvg0AAAAAAAhDRhuevltZB/yJu8q+W1kEAAKBIxUyFQAAA
AAACTrUIA7CW1kFCes8FsJbWQQAAIOedpYVAAAAAAAIwTEoOsJbWQRH+h8exltZBAADQ
CFUzo0AAAAAAAkLOCQ+yltZBa9bGErKW1kEAABhKPVGjQAAAAAACu9MMHLKW1kF2x4Yj
spbWQQAA8OcMjaNAAAAAAAKKdkhdspbWQTb/p3qyltZBAABQLQl4pEAAAAAAAq97yIay
ltZBuvLGh7KW1kEAAKjl/H+kQAAAAAACtixIp7KW1kH/lYauspbWQQAA8C/wuaRAAAAA
AAJ6Gse0spbWQWbWJ7ayltZBAABQD/bEpEAAAAAAAsLEi7myltZB9FCpu7KW1kEAAOBw
4tWkQAAAAAACri7Hw7KW1kHNO+jDspbWQQAA2Nnq1qRAAAAAAAKuvMvKspbWQcJvasuy
ltZBAAB4cuDbpEAAAAAAAuAMCdiyltZBUIsIHLOW1kEAAPhl3PumQAAAAAACWguHIrOW
1kHKHAYls5bWQQAAePHUD6dAAAAAAALy0okvs5bWQU7uBjCzltZBAABYzL0Tp0AAAAAA
AnCvxzSzltZB/PtFPbOW1kEAALgwsFenQAAAAAACLO+GiLOW1kH6lwaOs5bWQQAAKHet
g6dAAAAAAAL92YmPs5bWQXbGZ5izltZBAADw2pzKp0AAAAAAAvEtS6CzltZBIF2GqLOW
1kEAAGhUdgyoQAAAAAACzPHHqbOW1kGCcsaus5bWQQAAGFpqNKhAAAAAAALouoews5bW
QYJwhrKzltZBAADoBmBEqEAAAAAAAqpDR7ezltZBhAqnvLOW1kEAALg9Xm+oQAAAAAAC
taaHvrOW1kHG3MXFs5bWQQAAQO5PqahAAAAAAAIiOgfJs5bWQbVshsqzltZBAADYgkm1
qEAAAAAAAmwgiNCzltZBfAor5rOW1kEAAFjTYGKpQAAAAAACwO0H6rOW1kGT/8f2s5bW
QQAA8GFhyKlAAAAAAAKb5kb4s5bWQUIK5/uzltZBAAAof2LlqUAAAAAAArVtCAC0ltZB
FNFGAbSW1kEAACCaVe+pQAAAAAACgJ9GBbSW1kH8AgkKtJbWQQAAALZoFapAAAAAAAK0
PggPtJbWQTidxRK0ltZBAAAgqlMzqkAAAAAAAkiqyR+0ltZBDolHILSW1kEAAFCgQjeq
QAAAAAACEsMHI7SW1kFITComtJbWQQAAAOpWUKpAAAAAAAL84gkqtJbWQd/ehiq0ltZB
AAAYyT5UqkAAAAAAApJ1iCq0ltZBcJIHK7SW1kEAAAiwN1iqQAAAAAACSWYKL7SW1kEl
I+gztJbWQQAA6JYlf6pAAAAAAAIzwgY6tJbWQfrTBkK0ltZBAAAgJSa/qkAAAAAAAtGu
CEu0ltZBgpPIWrSW1kEAAKhKJT2rQAAAAAACdk7Ja7SW1kH8xgZztJbWQQAA2A4Rd6tA
AAAAAAIW+8Z0tJbWQXmSB3e0ltZBAADwyRWJq0AAAAAAAvKxSXq0ltZBMIFFfrSW1kEA
AOBD9KirQAAAAAAC0h6GhbSW1kGEgUaHtJbWQQAAcFn3tqtAAAAAAAIqbsmNtJbWQazF
aY60ltZBAACAFfq7q0AAAAAAAp+uiI60ltZB6j/IjrSW1kEAANif9r2rQAAAAAACPDDO
kLSW1kHohAeXtJbWQQAAOEXB76tAAAAAAAKOCIqptJbWQcjUhay0ltZBAAAIp58HrEAA
AAAAAryYx660ltZBZvdFtLSW1kEAAFickjOsQAAAAAACYRjIwLSW1kHJkYfBtJbWQQAA
mGeOOaxAAAAAAAKOCEjItJbWQX3O5Mm0ltZBAAAQl3RGrEAAAAAAAhPWCdO0ltZBijiH
2bSW1kEAAMiqX3qsQAAAAAACeNSI5rSW1kEe+Af2tJbWQQAA+MdY9qxAAAAAAAJl4QcD
tZbWQR7CSxu1ltZBAADAzXe4rUAAAAAAAtPABhy1ltZBStbLLbWW1kEAAHh5oEauQAAA
AAACOIVHMbWW1kFAv8Y0tZbWQQAAuEmaYq5AAAAAAAKVY8hKtZbWQZI6xku1ltZBAACg
AYlqrkAAAAAAArAdymC1ltZB6IKJYbWW1kEAAGArhHCuQAAAAAACL2uHarWW1kHArqNs
tZbWQQAA6Edmga5AAAAAAALPEYZvtZbWQWBXp2+1ltZBAABwdHCCrkAAAAAAAsJOCXO1
ltZBaF9GlbWW1kEAAKD5WJSvQAAAAAAC8RGHl7WW1kEq5IaqtZbWQQAAtMUrFrBAAAAA
AALylciwtZbWQajnR721ltZBAACMDClIsEAAAAAAAbThhsu1ltZBUMYC0rWW1kEAAPye
GGKwQAAAAAAAAAAA
</bin>
</fpdata>
</extensions>
</gpx>
